Time;durP1;ratioP1;P1;durP2;ratioP2;P2;SDS_P1;SDS_P2;PMS_P1;PMS_P2;Temp;Humidity;BMP_temperature;BMP_pressure;BME280_temperature;BME280_humidity;BME280_pressure;Samples;Min_cycle;Max_cycle;Signal;HPM_P1;HPM_P2
2022/12/16 00:02:04;;;;;;;38.28;28.05;;;0.10;99.90;;;;;;4952871;28;20077;-85
2022/12/16 00:04:30;;;;;;;38.00;25.63;;;0.10;99.90;;;;;;4953110;28;20054;-84
2022/12/16 00:06:55;;;;;;;34.58;27.45;;;0.00;99.90;;;;;;4950970;28;20034;-84
2022/12/16 00:09:21;;;;;;;38.10;27.65;;;0.00;99.90;;;;;;4952715;28;20047;-84
2022/12/16 00:11:46;;;;;;;34.28;26.90;;;0.00;99.90;;;;;;4955251;28;20117;-85
2022/12/16 00:14:12;;;;;;;38.80;28.20;;;0.10;99.90;;;;;;4952370;28;20410;-84
2022/12/16 00:16:37;;;;;;;35.25;26.73;;;0.80;99.90;;;;;;4949869;28;20066;-84
2022/12/16 00:19:03;;;;;;;36.80;26.67;;;0.10;99.90;;;;;;4969334;28;20069;-84
2022/12/16 00:21:29;;;;;;;34.47;25.98;;;0.10;99.90;;;;;;4966312;28;20066;-84
2022/12/16 00:23:55;;;;;;;32.83;27.25;;;0.10;99.90;;;;;;4948795;28;20035;-84
2022/12/16 00:26:22;;;;;;;36.72;27.45;;;0.20;99.90;;;;;;4968167;28;20086;-85
2022/12/16 00:28:47;;;;;;;37.35;28.08;;;0.20;99.90;;;;;;4964427;28;20089;-85
2022/12/16 00:31:16;;;;;;;31.85;25.38;;;0.20;99.90;;;;;;4969079;28;20549;-85
2022/12/16 00:33:41;;;;;;;34.97;26.85;;;0.20;99.90;;;;;;4954714;28;20114;-85
2022/12/16 00:36:07;;;;;;;35.90;25.98;;;0.20;99.90;;;;;;4944324;28;20098;-85
2022/12/16 00:38:38;;;;;;;35.35;25.30;;;0.20;99.90;;;;;;4961683;28;20070;-86
2022/12/16 00:41:08;;;;;;;32.72;23.73;;;0.20;99.90;;;;;;4953032;28;20067;-85
2022/12/16 00:43:37;;;;;;;33.38;25.25;;;0.10;99.90;;;;;;4954667;28;20135;-85
2022/12/16 00:46:02;;;;;;;29.15;22.92;;;0.10;99.90;;;;;;4968413;28;20126;-85
2022/12/16 00:48:28;;;;;;;28.27;23.75;;;0.00;99.90;;;;;;4969450;28;20069;-85
2022/12/16 00:50:54;;;;;;;30.20;22.63;;;0.00;99.90;;;;;;4958612;28;20045;-85
2022/12/16 00:53:21;;;;;;;31.17;23.02;;;0.00;99.90;;;;;;4955263;28;20046;-85
2022/12/16 00:55:46;;;;;;;35.30;24.48;;;-0.10;99.90;;;;;;4970762;28;20074;-85
2022/12/16 00:58:12;;;;;;;35.63;25.05;;;0.00;99.90;;;;;;4969462;28;20081;-85
2022/12/16 01:00:42;;;;;;;32.47;25.20;;;-0.80;99.90;;;;;;4954076;28;20042;-85
2022/12/16 01:03:12;;;;;;;33.67;24.73;;;-0.20;99.90;;;;;;4972176;28;20046;-85
2022/12/16 01:05:38;;;;;;;38.47;25.05;;;1.00;99.90;;;;;;4955003;28;20069;-85
2022/12/16 01:08:04;;;;;;;33.65;25.60;;;0.10;99.90;;;;;;4971097;28;20063;-85
2022/12/16 01:10:29;;;;;;;34.97;26.67;;;0.20;99.90;;;;;;4967507;28;20043;-85
2022/12/16 01:12:55;;;;;;;34.03;25.52;;;0.20;99.90;;;;;;4969682;28;20042;-85
2022/12/16 01:15:21;;;;;;;44.13;28.48;;;0.20;99.90;;;;;;4953306;28;20591;-86
2022/12/16 01:17:46;;;;;;;35.33;25.75;;;0.20;99.90;;;;;;4971242;28;20438;-85
2022/12/16 01:20:13;;;;;;;40.80;27.08;;;0.20;99.90;;;;;;4965542;28;20096;-84
2022/12/16 01:22:38;;;;;;;34.80;27.23;;;0.20;99.90;;;;;;4965510;28;20129;-85
2022/12/16 01:25:04;;;;;;;38.50;26.10;;;0.20;99.90;;;;;;4965917;28;20518;-85
2022/12/16 01:27:30;;;;;;;40.03;26.33;;;0.20;99.90;;;;;;4954631;28;20038;-85
2022/12/16 01:29:55;;;;;;;36.53;26.88;;;0.50;99.90;;;;;;4956423;28;20038;-85
2022/12/16 01:32:21;;;;;;;38.08;27.20;;;0.20;99.90;;;;;;4954554;28;20145;-84
2022/12/16 01:34:51;;;;;;;32.72;24.00;;;0.20;99.90;;;;;;4970091;28;20656;-85
2022/12/16 01:37:17;;;;;;;34.20;25.55;;;0.20;99.90;;;;;;4952829;28;20043;-85
2022/12/16 01:39:43;;;;;;;29.27;23.95;;;0.30;99.90;;;;;;4955798;28;20045;-85
2022/12/16 01:42:13;;;;;;;35.85;25.23;;;0.30;99.90;;;;;;4956254;28;21548;-86
2022/12/16 01:44:42;;;;;;;37.30;27.15;;;0.30;99.90;;;;;;4950754;28;20060;-85
2022/12/16 01:47:14;;;;;;;37.60;26.95;;;0.30;99.90;;;;;;4951117;28;20069;-84
2022/12/16 01:49:53;;;;;;;36.15;25.00;;;0.30;99.90;;;;;;4970446;28;20038;-84
2022/12/16 01:52:24;;;;;;;44.08;28.70;;;0.30;99.90;;;;;;4947154;28;20449;-84
2022/12/16 01:54:59;;;;;;;35.80;25.52;;;0.30;99.90;;;;;;4953043;28;20034;-86
2022/12/16 01:57:52;;;;;;;39.88;27.10;;;0.20;99.90;;;;;;4948347;28;20035;-85
2022/12/16 02:00:17;;;;;;;36.92;28.13;;;0.20;99.90;;;;;;4946167;28;20093;-85
2022/12/16 02:02:46;;;;;;;38.50;27.17;;;0.20;99.90;;;;;;4953690;28;20034;-84
2022/12/16 02:05:21;;;;;;;43.75;28.73;;;0.20;99.90;;;;;;4964548;28;20051;-86
2022/12/16 02:07:55;;;;;;;38.30;29.95;;;0.20;99.90;;;;;;4986245;28;20046;-86
2022/12/16 02:10:35;;;;;;;41.30;30.63;;;0.20;99.90;;;;;;4951395;28;20398;-85
2022/12/16 02:13:31;;;;;;;36.20;28.25;;;0.20;99.90;;;;;;4955734;28;20045;-85
2022/12/16 02:16:06;;;;;;;39.20;28.23;;;0.10;99.90;;;;;;4965396;28;20447;-87
2022/12/16 02:19:00;;;;;;;37.53;27.90;;;0.20;99.90;;;;;;4944445;28;20125;-85
2022/12/16 02:21:51;;;;;;;42.50;27.52;;;0.20;99.90;;;;;;4970526;28;20034;-85
2022/12/16 02:24:57;;;;;;;41.53;30.00;;;0.20;99.90;;;;;;4969557;28;20058;-84
2022/12/16 02:27:29;;;;;;;36.60;27.90;;;0.20;99.90;;;;;;4952417;28;20058;-85
2022/12/16 02:30:25;;;;;;;44.55;29.48;;;0.30;99.90;;;;;;4954605;28;20129;-85
2022/12/16 02:33:15;;;;;;;34.60;26.10;;;0.20;99.90;;;;;;4964925;28;20043;-85
2022/12/16 02:35:53;;;;;;;38.88;26.08;;;0.20;99.90;;;;;;4967839;28;20711;-85
2022/12/16 02:38:41;;;;;;;40.33;27.67;;;0.20;99.90;;;;;;4950302;28;20121;-85
2022/12/16 02:41:26;;;;;;;42.47;27.92;;;0.30;99.90;;;;;;4968378;28;20094;-85
2022/12/16 02:44:03;;;;;;;39.40;28.38;;;0.20;99.90;;;;;;4954450;28;20050;-85
2022/12/16 02:46:32;;;;;;;33.25;25.50;;;0.30;99.90;;;;;;4970495;28;20524;-86
2022/12/16 02:49:25;;;;;;;35.72;25.38;;;0.40;99.90;;;;;;4953578;28;20146;-86
2022/12/16 02:51:52;;;;;;;30.77;25.00;;;0.30;99.90;;;;;;4952551;28;20050;-86
2022/12/16 02:54:18;;;;;;;29.80;22.20;;;0.30;99.90;;;;;;4965318;28;20088;-85
2022/12/16 02:57:01;;;;;;;22.88;17.23;;;0.30;99.90;;;;;;4952678;28;20034;-85
2022/12/16 02:59:43;;;;;;;21.15;17.58;;;0.30;99.90;;;;;;4965138;28;20452;-86
2022/12/16 03:02:15;;;;;;;26.17;16.88;;;0.40;99.90;;;;;;4952073;28;20769;-86
2022/12/16 03:04:48;;;;;;;19.38;15.20;;;0.50;99.90;;;;;;4954040;28;20113;-85
2022/12/16 03:07:16;;;;;;;17.55;13.60;;;0.50;99.90;;;;;;4953170;28;20401;-85
2022/12/16 03:09:44;;;;;;;18.85;13.18;;;0.50;99.90;;;;;;4953903;28;20042;-85
2022/12/16 03:12:13;;;;;;;22.23;13.75;;;0.50;99.90;;;;;;4949905;28;20497;-85
2022/12/16 03:14:43;;;;;;;14.43;12.15;;;0.50;99.90;;;;;;4952613;28;20050;-85
2022/12/16 03:17:11;;;;;;;18.27;12.27;;;0.60;99.90;;;;;;4950603;28;20050;-86
2022/12/16 03:19:39;;;;;;;17.17;13.10;;;0.70;99.90;;;;;;4948512;28;20521;-85
2022/12/16 03:22:17;;;;;;;17.50;13.55;;;0.70;99.90;;;;;;4963204;28;20166;-85
2022/12/16 03:24:43;;;;;;;15.93;12.27;;;0.70;99.90;;;;;;4950028;28;20047;-85
2022/12/16 03:27:26;;;;;;;22.13;12.55;;;0.70;99.90;;;;;;4951428;28;20050;-85
2022/12/16 03:30:09;;;;;;;17.48;12.15;;;0.80;99.90;;;;;;4950462;28;20050;-85
2022/12/16 03:32:43;;;;;;;16.80;13.00;;;0.70;99.90;;;;;;4950446;28;20042;-85
2022/12/16 03:35:23;;;;;;;17.30;12.10;;;0.80;99.90;;;;;;4950441;28;20043;-85
2022/12/16 03:37:54;;;;;;;14.18;12.15;;;0.70;99.90;;;;;;4952180;28;20050;-85
2022/12/16 03:40:20;;;;;;;15.73;12.30;;;0.70;99.90;;;;;;4951663;28;20046;-85
2022/12/16 03:42:46;;;;;;;17.25;12.10;;;0.70;99.90;;;;;;4966768;28;20042;-87
2022/12/16 03:45:18;;;;;;;14.30;11.35;;;0.70;99.90;;;;;;4948247;28;20522;-86
2022/12/16 03:47:49;;;;;;;13.52;11.43;;;0.70;99.90;;;;;;4954047;28;20038;-85
2022/12/16 03:50:16;;;;;;;14.43;10.90;;;0.70;99.90;;;;;;4964723;28;20082;-85
2022/12/16 03:52:42;;;;;;;17.00;11.25;;;0.80;99.90;;;;;;4968836;28;20126;-85
2022/12/16 03:55:07;;;;;;;13.52;10.48;;;0.80;99.90;;;;;;4967194;28;20133;-85
2022/12/16 03:57:33;;;;;;;17.48;10.43;;;0.70;99.90;;;;;;4952181;28;20089;-85
2022/12/16 03:59:59;;;;;;;13.73;9.23;;;0.70;99.90;;;;;;4948726;28;20197;-86
2022/12/16 04:02:25;;;;;;;15.55;10.10;;;0.70;99.90;;;;;;4953110;28;20045;-85
2022/12/16 04:04:51;;;;;;;12.40;7.90;;;0.80;99.90;;;;;;4954426;28;20035;-86
2022/12/16 04:07:19;;;;;;;11.77;7.90;;;0.70;99.90;;;;;;4951144;28;20426;-85
2022/12/16 04:09:45;;;;;;;10.25;7.30;;;0.70;99.90;;;;;;4973219;28;20101;-85
2022/12/16 04:26:11;;;;;;;11.50;6.43;;;0.60;99.90;;;;;;4966024;28;20043;-86
2022/12/16 04:28:36;;;;;;;9.70;6.40;;;0.50;99.90;;;;;;4946446;28;20378;-85
2022/12/16 04:31:03;;;;;;;8.40;5.32;;;0.60;99.90;;;;;;4970369;28;20094;-87
